createdAt,value
2019-01-05T00:01:32.986Z,19.50
2019-01-05T00:04:21.689Z,31.67
2019-01-05T00:07:21.638Z,41.37
2019-01-05T00:10:08.868Z,43.53
2019-01-05T00:13:05.241Z,19.87
2019-01-05T00:15:53.495Z,25.07
2019-01-05T00:18:55.376Z,25.00
2019-01-05T00:21:45.247Z,23.10
2019-01-05T00:24:43.557Z,25.50
2019-01-05T00:27:35.014Z,16.87
2019-01-05T00:30:22.733Z,21.53
2019-01-05T00:33:12.210Z,27.17
2019-01-05T00:36:04.755Z,22.50
2019-01-05T00:39:02.419Z,29.60
2019-01-05T00:41:51.621Z,29.37
2019-01-05T00:44:52.641Z,28.05
2019-01-05T00:47:36.535Z,21.87
2019-01-05T00:50:34.249Z,28.63
2019-01-05T00:53:22.342Z,28.90
2019-01-05T00:56:10.110Z,22.60
2019-01-05T00:58:57.393Z,23.67
2019-01-05T01:01:55.077Z,21.37
2019-01-05T01:04:41.974Z,32.47
2019-01-05T01:07:48.892Z,26.90
2019-01-05T01:10:32.734Z,24.90
2019-01-05T01:13:20.357Z,25.27
2019-01-05T01:16:15.655Z,26.30
2019-01-05T01:19:17.248Z,25.17
2019-01-05T01:22:24.735Z,28.93
2019-01-05T01:25:13.037Z,27.30
2019-01-05T01:28:13.220Z,27.73
2019-01-05T01:31:01.484Z,23.20
2019-01-05T01:34:12.736Z,25.87
2019-01-05T01:36:59.419Z,29.90
2019-01-05T01:39:51.534Z,52.43
2019-01-05T01:42:42.182Z,29.67
2019-01-05T01:45:36.931Z,29.73
2019-01-05T01:48:29.602Z,19.77
2019-01-05T01:51:20.395Z,23.50
2019-01-05T01:54:18.048Z,19.53
2019-01-05T01:57:05.746Z,32.37
2019-01-05T02:00:12.210Z,24.60
2019-01-05T02:02:54.268Z,22.73
2019-01-05T02:05:52.739Z,24.30
2019-01-05T02:08:53.468Z,19.43
2019-01-05T02:11:52.502Z,25.47
2019-01-05T02:14:55.779Z,20.07
2019-01-05T02:18:15.225Z,26.30
2019-01-05T02:21:32.045Z,18.23
2019-01-05T02:25:16.860Z,22.03
2019-01-05T02:28:55.276Z,25.57
2019-01-05T02:31:52.251Z,25.07
2019-01-05T02:34:50.924Z,22.27
2019-01-05T02:38:22.348Z,19.97
2019-01-05T02:41:55.073Z,28.43
2019-01-05T02:44:59.939Z,22.40
2019-01-05T02:48:50.866Z,19.17
2019-01-05T02:52:06.252Z,20.67
2019-01-05T02:55:41.517Z,20.27
2019-01-05T02:59:29.237Z,22.13
2019-01-05T03:02:24.560Z,17.40
2019-01-05T03:05:22.895Z,20.10
2019-01-05T03:08:53.084Z,15.53
2019-01-05T03:12:07.123Z,24.77
2019-01-05T03:15:28.015Z,15.93
2019-01-05T03:18:38.237Z,27.97
2019-01-05T03:21:45.803Z,21.70
2019-01-05T03:25:12.978Z,28.73
2019-01-05T03:28:22.864Z,24.27
2019-01-05T03:31:41.145Z,22.20
2019-01-05T03:34:47.457Z,24.13
2019-01-05T03:38:08.432Z,24.80
2019-01-05T03:41:21.889Z,25.10
2019-01-05T03:44:45.017Z,18.10
2019-01-05T03:48:04.225Z,14.07
2019-01-05T03:51:00.169Z,26.63
2019-01-05T03:54:27.222Z,26.07
2019-01-05T03:58:11.155Z,19.03
2019-01-05T04:01:26.500Z,25.70
2019-01-05T04:04:50.827Z,23.60
2019-01-05T04:08:07.600Z,22.97
2019-01-05T04:11:27.151Z,23.67
2019-01-05T04:14:43.862Z,20.30
2019-01-05T04:18:23.424Z,20.00
2019-01-05T04:21:50.608Z,28.50
2019-01-05T04:25:38.250Z,28.07
2019-01-05T04:29:25.161Z,25.87
2019-01-05T04:32:56.615Z,25.13
2019-01-05T04:36:14.373Z,19.53
2019-01-05T04:39:18.851Z,21.27
2019-01-05T04:42:53.034Z,16.67
2019-01-05T04:46:28.104Z,23.20
2019-01-05T04:49:51.459Z,18.43
2019-01-05T04:53:00.058Z,19.23
2019-01-05T04:56:24.453Z,19.30
2019-01-05T04:59:58.536Z,28.63
2019-01-05T05:03:23.067Z,24.20
2019-01-05T05:06:35.831Z,19.30
2019-01-05T05:10:14.159Z,21.63
2019-01-05T05:13:48.526Z,27.07
2019-01-05T05:17:15.780Z,25.80
2019-01-05T05:20:37.587Z,22.50
2019-01-05T05:23:56.478Z,21.13
2019-01-05T05:27:20.664Z,26.60
2019-01-05T05:30:12.838Z,18.87
2019-01-05T05:33:36.311Z,21.57
2019-01-05T05:36:36.100Z,26.03
2019-01-05T05:40:04.101Z,30.20
2019-01-05T05:43:13.051Z,16.43
2019-01-05T05:46:10.535Z,26.17
2019-01-05T05:49:30.954Z,21.30
2019-01-05T05:52:54.962Z,16.23
2019-01-05T05:56:15.237Z,20.97
2019-01-05T05:59:32.741Z,19.17
2019-01-05T06:02:56.224Z,25.83
2019-01-05T06:06:12.268Z,18.90
2019-01-05T06:09:26.039Z,20.67
2019-01-05T06:12:54.261Z,21.97
2019-01-05T06:16:05.803Z,23.53
2019-01-05T06:19:42.359Z,18.13
2019-01-05T06:22:58.499Z,25.50
2019-01-05T06:26:09.347Z,19.40
2019-01-05T06:29:56.237Z,20.63
2019-01-05T06:33:36.564Z,22.97
2019-01-05T06:37:06.988Z,17.73
2019-01-05T06:40:32.999Z,20.80
2019-01-05T06:43:38.337Z,12.10
2019-01-05T06:46:59.373Z,16.50
2019-01-05T06:50:39.574Z,14.77
2019-01-05T06:54:21.647Z,21.20
2019-01-05T06:58:08.026Z,21.70
2019-01-05T07:01:35.303Z,16.40
2019-01-05T07:04:56.813Z,21.33
2019-01-05T07:08:19.438Z,19.60
2019-01-05T07:11:52.751Z,16.93
2019-01-05T07:15:01.910Z,17.07
2019-01-05T07:18:49.694Z,22.57
2019-01-05T07:22:17.021Z,19.53
2019-01-05T07:25:51.363Z,17.07
2019-01-05T07:29:18.735Z,25.50
2019-01-05T07:32:38.462Z,21.03
2019-01-05T07:36:10.999Z,16.07
2019-01-05T07:39:34.855Z,18.10
2019-01-05T07:43:25.903Z,20.17
2019-01-05T07:46:53.994Z,21.70
2019-01-05T07:50:18.471Z,21.13
2019-01-05T07:53:42.833Z,33.97
2019-01-05T07:57:24.434Z,20.60
2019-01-05T08:01:01.363Z,25.30
2019-01-05T08:04:11.353Z,28.60
2019-01-05T08:07:17.954Z,20.50
2019-01-05T08:10:55.631Z,23.00
2019-01-05T08:14:13.582Z,21.27
2019-01-05T08:17:47.129Z,23.30
2019-01-05T08:21:29.886Z,25.63
2019-01-05T08:24:43.397Z,26.93
2019-01-05T08:28:06.491Z,17.50
2019-01-05T08:31:07.037Z,22.07
2019-01-05T08:34:10.496Z,19.33
2019-01-05T08:37:18.288Z,17.90
2019-01-05T08:40:33.096Z,19.40
2019-01-05T08:44:09.686Z,14.73
2019-01-05T08:52:00.518Z,12.70
2019-01-05T08:59:00.274Z,17.73
2019-01-05T09:06:34.291Z,10.17
2019-01-05T09:10:32.500Z,12.07
2019-01-05T09:14:13.351Z,17.37
2019-01-05T09:17:45.937Z,15.63
2019-01-05T09:21:32.610Z,16.43
2019-01-05T09:25:09.072Z,16.27
2019-01-05T09:28:36.180Z,11.87
2019-01-05T09:32:06.610Z,11.70
2019-01-05T09:35:33.270Z,15.57
2019-01-05T09:42:59.730Z,33.77
2019-01-05T09:46:15.193Z,26.47
2019-01-05T09:49:42.122Z,10.27
2019-01-05T09:53:07.731Z,8.67
2019-01-05T09:56:39.923Z,9.13
2019-01-05T10:00:20.460Z,10.07
2019-01-05T10:14:28.006Z,11.10
2019-01-05T10:17:59.691Z,11.43
2019-01-05T10:21:24.163Z,8.93
2019-01-05T10:24:47.675Z,12.63
2019-01-05T10:32:00.687Z,11.50
2019-01-05T10:35:42.694Z,8.87
2019-01-05T10:39:36.095Z,6.13
2019-01-05T10:43:11.170Z,6.83
2019-01-05T10:50:45.382Z,9.13
2019-01-05T11:04:19.614Z,23.23
2019-01-05T11:07:18.587Z,18.87
2019-01-05T11:10:48.967Z,6.30
2019-01-05T11:14:14.001Z,6.00
2019-01-05T11:17:37.462Z,4.63
2019-01-05T11:21:11.670Z,6.87
2019-01-05T11:24:23.479Z,5.50
2019-01-05T11:27:47.593Z,4.17
2019-01-05T11:34:49.352Z,5.13
2019-01-05T11:38:07.504Z,6.23
2019-01-05T11:47:41.258Z,2.77
2019-01-05T11:54:07.851Z,6.47
2019-01-05T12:01:09.479Z,5.10
2019-01-05T12:07:59.310Z,5.40
2019-01-05T12:11:17.593Z,8.57
2019-01-05T12:14:23.021Z,4.73
2019-01-05T12:21:02.718Z,6.10
2019-01-05T12:28:32.727Z,4.80
2019-01-05T12:38:42.162Z,2.10
2019-01-05T12:41:58.856Z,5.27
2019-01-05T12:45:00.708Z,4.63
2019-01-05T12:48:39.464Z,4.60
2019-01-05T12:51:56.166Z,5.20
2019-01-05T12:55:19.092Z,3.87
2019-01-05T12:58:27.485Z,4.67
2019-01-05T13:05:49.477Z,3.53
2019-01-05T13:16:07.591Z,2.87
2019-01-05T13:19:54.894Z,4.23
2019-01-05T13:23:20.382Z,5.40
2019-01-05T13:26:59.586Z,19.13
2019-01-05T13:30:35.749Z,13.90
2019-01-05T13:33:50.798Z,8.83
2019-01-05T13:37:47.957Z,2.67
2019-01-05T13:40:51.374Z,2.77
2019-01-05T13:43:58.676Z,3.03
2019-01-05T13:47:23.085Z,2.23
2019-01-05T13:50:42.288Z,2.43
2019-01-05T13:53:34.525Z,2.23
2019-01-05T13:59:48.959Z,3.60
2019-01-05T14:02:43.519Z,2.93
2019-01-05T14:05:36.286Z,2.20
2019-01-05T14:08:34.345Z,3.80
2019-01-05T14:11:21.562Z,2.80
2019-01-05T14:14:10.220Z,3.80
2019-01-05T14:16:57.645Z,13.90
2019-01-05T14:19:55.534Z,13.57
2019-01-05T14:23:02.278Z,24.07
2019-01-05T14:26:00.020Z,16.23
2019-01-05T14:28:47.296Z,6.80
2019-01-05T14:31:39.853Z,4.03
2019-01-05T14:34:42.995Z,3.40
2019-01-05T14:37:29.772Z,10.60
2019-01-05T14:40:33.606Z,5.00
2019-01-05T14:43:30.947Z,4.37
2019-01-05T14:46:19.681Z,4.87
2019-01-05T14:49:20.599Z,5.67
2019-01-05T14:52:07.962Z,5.10
2019-01-05T14:54:55.229Z,3.50
2019-01-05T14:57:42.581Z,4.93
2019-01-05T15:00:49.285Z,3.20
2019-01-05T15:03:53.080Z,3.80
2019-01-05T15:06:49.244Z,6.27
2019-01-05T15:09:36.418Z,4.83
2019-01-05T15:12:23.547Z,20.93
2019-01-05T15:15:11.930Z,8.60
2019-01-05T15:17:58.984Z,4.87
2019-01-05T15:20:58.008Z,5.23
2019-01-05T15:23:43.676Z,9.70
2019-01-05T15:26:34.756Z,14.70
2019-01-05T15:29:32.230Z,7.63
2019-01-05T15:32:19.246Z,3.93
2019-01-05T15:35:18.797Z,3.27
2019-01-05T15:38:19.095Z,3.73
2019-01-05T15:41:06.636Z,5.43
2019-01-05T15:43:53.779Z,5.60
2019-01-05T15:46:42.470Z,10.20
2019-01-05T15:49:42.921Z,5.90
2019-01-05T15:52:30.317Z,3.03
2019-01-05T15:55:19.106Z,8.10
2019-01-05T15:58:25.836Z,6.77
2019-01-05T16:01:07.494Z,6.53
2019-01-05T16:03:57.532Z,8.03
2019-01-05T16:06:44.868Z,4.20
2019-01-05T16:09:33.206Z,3.87
2019-01-05T16:12:20.186Z,6.27
2019-01-05T16:15:08.898Z,3.83
2019-01-05T16:17:57.675Z,6.23
2019-01-05T16:20:55.256Z,6.00
2019-01-05T16:23:49.633Z,4.00
2019-01-05T16:26:44.407Z,3.77
2019-01-05T16:29:29.381Z,3.03
2019-01-05T16:32:16.652Z,3.97
2019-01-05T16:35:17.644Z,28.50
2019-01-05T16:38:16.144Z,7.97
2019-01-05T16:41:14.027Z,7.67
2019-01-05T16:44:00.893Z,5.70
2019-01-05T16:47:00.990Z,3.90
2019-01-05T16:49:47.978Z,9.80
2019-01-05T16:52:35.637Z,4.93
2019-01-05T16:55:27.124Z,6.43
2019-01-05T16:58:21.747Z,3.57
2019-01-05T17:01:22.748Z,5.63
2019-01-05T17:04:18.549Z,6.77
2019-01-05T17:07:05.771Z,6.50
2019-01-05T17:10:12.744Z,4.20
2019-01-05T17:13:00.094Z,4.50
2019-01-05T17:15:47.725Z,4.43
2019-01-05T17:18:40.722Z,4.47
2019-01-05T17:21:47.570Z,7.73
2019-01-05T17:24:51.129Z,6.13
2019-01-05T17:27:50.002Z,6.70
2019-01-05T17:30:30.831Z,11.30
2019-01-05T17:33:19.209Z,8.53
2019-01-05T17:36:06.181Z,8.70
2019-01-05T17:38:53.344Z,7.50
2019-01-05T17:41:56.849Z,11.60
2019-01-05T17:44:37.293Z,10.77
2019-01-05T17:47:27.077Z,22.33
2019-01-05T17:50:14.786Z,18.63
2019-01-05T17:53:09.385Z,12.93
2019-01-05T17:55:56.594Z,10.73
2019-01-05T17:58:44.011Z,8.50
2019-01-05T18:01:31.359Z,6.67
2019-01-05T18:04:20.853Z,7.50
2019-01-05T18:07:15.947Z,6.13
2019-01-05T18:10:29.448Z,4.67
2019-01-05T18:13:32.499Z,9.67
2019-01-05T18:16:21.980Z,4.60
2019-01-05T18:19:10.064Z,7.53
2019-01-05T18:22:30.437Z,6.63
2019-01-05T18:28:28.550Z,12.83
2019-01-05T18:31:24.570Z,15.73
2019-01-05T18:34:27.704Z,16.80
2019-01-05T18:37:19.800Z,11.90
2019-01-05T18:40:13.309Z,13.53
2019-01-05T18:43:08.483Z,12.23
2019-01-05T18:45:57.691Z,12.93
2019-01-05T18:48:39.604Z,14.97
2019-01-05T18:51:28.240Z,11.13
2019-01-05T18:54:21.267Z,14.57
2019-01-05T18:57:08.586Z,10.90
2019-01-05T18:59:59.722Z,39.27
2019-01-05T19:02:48.491Z,37.20
2019-01-05T19:05:36.849Z,35.53
2019-01-05T19:08:23.783Z,16.67
2019-01-05T19:11:11.037Z,13.70
2019-01-05T19:16:29.176Z,13.90
2019-01-05T19:19:16.649Z,15.50
2019-01-05T19:22:17.861Z,16.50
2019-01-05T19:25:02.698Z,13.33
2019-01-05T19:27:51.063Z,10.27
2019-01-05T19:30:39.550Z,13.07
2019-01-05T19:33:27.183Z,16.87
2019-01-05T19:36:34.270Z,13.17
2019-01-05T19:39:29.505Z,15.80
2019-01-05T19:42:26.105Z,17.73
2019-01-05T19:45:13.719Z,16.90
2019-01-05T19:48:13.966Z,16.57
2019-01-05T19:51:12.177Z,21.27
2019-01-05T19:54:00.964Z,23.37
2019-01-05T19:56:48.012Z,12.63
2019-01-05T19:59:31.777Z,13.07
2019-01-05T20:02:20.708Z,15.43
2019-01-05T20:05:09.146Z,14.63
2019-01-05T20:08:00.386Z,34.93
2019-01-05T20:10:48.091Z,30.50
2019-01-05T20:13:35.645Z,40.77
2019-01-05T20:16:23.300Z,27.90
2019-01-05T20:19:02.270Z,15.83
2019-01-05T20:22:06.104Z,10.07
2019-01-05T20:24:49.398Z,10.97
2019-01-05T20:27:37.154Z,12.27
2019-01-05T20:30:30.652Z,11.27
2019-01-05T20:33:18.075Z,10.60
2019-01-05T20:35:59.015Z,12.50
2019-01-05T20:38:47.873Z,10.23
2019-01-05T20:41:34.887Z,31.77
2019-01-05T20:44:22.417Z,22.53
2019-01-05T20:47:21.547Z,12.50
2019-01-05T20:50:29.005Z,10.43
2019-01-05T20:53:16.939Z,8.60
2019-01-05T20:56:06.965Z,17.53
2019-01-05T20:59:04.599Z,24.40
2019-01-05T21:01:51.548Z,9.17
2019-01-05T21:04:38.719Z,4.83
2019-01-05T21:07:33.763Z,14.47
2019-01-05T21:10:18.981Z,22.07
2019-01-05T21:13:19.662Z,12.40
2019-01-05T21:16:07.165Z,8.30
2019-01-05T21:19:08.493Z,6.10
2019-01-05T21:21:57.370Z,7.40
2019-01-05T21:24:58.025Z,6.43
2019-01-05T21:27:45.555Z,6.47
2019-01-05T21:30:34.107Z,32.87
2019-01-05T21:33:25.856Z,64.23
2019-01-05T21:36:11.403Z,45.10
2019-01-05T21:38:55.404Z,17.33
2019-01-05T21:41:35.617Z,18.17
2019-01-05T21:44:22.851Z,24.63
2019-01-05T21:47:09.868Z,10.53
2019-01-05T21:50:00.918Z,21.07
2019-01-05T21:53:05.018Z,23.63
2019-01-05T21:56:00.742Z,22.17
2019-01-05T21:58:45.997Z,15.07
2019-01-05T22:01:31.843Z,15.30
2019-01-05T22:04:19.511Z,12.03
2019-01-05T22:07:10.836Z,8.37
2019-01-05T22:10:08.584Z,8.60
2019-01-05T22:12:54.733Z,8.00
2019-01-05T22:15:41.061Z,11.23
2019-01-05T22:18:32.032Z,5.50
2019-01-05T22:21:32.824Z,6.60
2019-01-05T22:24:21.269Z,7.63
2019-01-05T22:27:19.177Z,8.53
2019-01-05T22:30:04.702Z,5.00
2019-01-05T22:32:46.129Z,7.80
2019-01-05T22:35:46.050Z,7.30
2019-01-05T22:38:36.282Z,8.27
2019-01-05T22:41:28.983Z,7.17
2019-01-05T22:44:16.616Z,5.37
2019-01-05T22:47:11.298Z,5.13
2019-01-05T22:50:09.228Z,8.23
2019-01-05T22:52:58.311Z,4.10
2019-01-05T22:55:50.210Z,5.40
2019-01-05T22:58:38.108Z,24.93
2019-01-05T23:01:37.175Z,18.57
2019-01-05T23:04:24.284Z,30.97
2019-01-05T23:07:11.510Z,7.73
2019-01-05T23:09:58.587Z,6.80
2019-01-05T23:12:59.133Z,23.53
2019-01-05T23:15:42.739Z,19.80
2019-01-05T23:18:30.435Z,10.43
2019-01-05T23:21:22.047Z,4.17
2019-01-05T23:24:19.999Z,9.03
2019-01-05T23:27:03.218Z,49.30
2019-01-05T23:29:50.151Z,17.97
2019-01-05T23:32:39.095Z,5.20
2019-01-05T23:35:27.543Z,8.70
2019-01-05T23:38:15.688Z,7.10
2019-01-05T23:41:07.038Z,5.87
2019-01-05T23:44:07.676Z,4.67
2019-01-05T23:46:54.813Z,7.57
2019-01-05T23:49:43.095Z,3.10
2019-01-05T23:52:30.613Z,4.27
2019-01-05T23:55:25.736Z,4.83
2019-01-05T23:58:45.719Z,4.23
